sensor_id;sensor_type;location;lat;lon;timestamp;temperature;humidity
19536;HTU21D;9913;51.168;4.124;2023-07-31T00:01:35;16.52;97.97
19536;HTU21D;9913;51.168;4.124;2023-07-31T00:04:03;16.50;97.52
19536;HTU21D;9913;51.168;4.124;2023-07-31T00:06:33;16.40;98.32
19536;HTU21D;9913;51.168;4.124;2023-07-31T00:09:01;16.31;98.62
19536;HTU21D;9913;51.168;4.124;2023-07-31T00:11:30;16.42;98.23
19536;HTU21D;9913;51.168;4.124;2023-07-31T00:13:58;16.49;97.86
19536;HTU21D;9913;51.168;4.124;2023-07-31T00:16:28;16.54;97.56
19536;HTU21D;9913;51.168;4.124;2023-07-31T00:18:57;16.45;98.49
19536;HTU21D;9913;51.168;4.124;2023-07-31T00:21:25;16.40;98.01
19536;HTU21D;9913;51.168;4.124;2023-07-31T00:23:55;16.42;98.29
19536;HTU21D;9913;51.168;4.124;2023-07-31T00:26:23;16.30;98.86
19536;HTU21D;9913;51.168;4.124;2023-07-31T00:28:51;16.39;98.16
19536;HTU21D;9913;51.168;4.124;2023-07-31T00:31:20;16.40;98.35
19536;HTU21D;9913;51.168;4.124;2023-07-31T00:33:48;16.46;98.46
19536;HTU21D;9913;51.168;4.124;2023-07-31T00:36:17;16.46;98.23
19536;HTU21D;9913;51.168;4.124;2023-07-31T00:38:45;16.41;98.31
19536;HTU21D;9913;51.168;4.124;2023-07-31T00:41:15;16.43;98.30
19536;HTU21D;9913;51.168;4.124;2023-07-31T00:43:43;16.42;98.07
19536;HTU21D;9913;51.168;4.124;2023-07-31T00:46:12;16.50;97.76
19536;HTU21D;9913;51.168;4.124;2023-07-31T00:48:41;16.49;97.63
19536;HTU21D;9913;51.168;4.124;2023-07-31T00:51:10;16.34;98.28
19536;HTU21D;9913;51.168;4.124;2023-07-31T00:53:38;16.29;98.68
19536;HTU21D;9913;51.168;4.124;2023-07-31T00:56:11;16.43;98.08
19536;HTU21D;9913;51.168;4.124;2023-07-31T00:58:40;16.41;98.11
19536;HTU21D;9913;51.168;4.124;2023-07-31T01:01:09;16.36;99.03
19536;HTU21D;9913;51.168;4.124;2023-07-31T01:03:37;16.35;98.83
19536;HTU21D;9913;51.168;4.124;2023-07-31T01:06:15;16.18;99.03
19536;HTU21D;9913;51.168;4.124;2023-07-31T01:08:51;16.28;99.56
19536;HTU21D;9913;51.168;4.124;2023-07-31T01:11:25;16.42;98.05
19536;HTU21D;9913;51.168;4.124;2023-07-31T01:13:56;16.46;97.78
19536;HTU21D;9913;51.168;4.124;2023-07-31T01:16:25;16.50;98.11
19536;HTU21D;9913;51.168;4.124;2023-07-31T01:18:54;16.46;97.89
19536;HTU21D;9913;51.168;4.124;2023-07-31T01:21:32;16.31;98.68
19536;HTU21D;9913;51.168;4.124;2023-07-31T01:24:20;16.45;97.81
19536;HTU21D;9913;51.168;4.124;2023-07-31T01:26:55;16.42;98.20
19536;HTU21D;9913;51.168;4.124;2023-07-31T01:29:32;16.45;98.28
19536;HTU21D;9913;51.168;4.124;2023-07-31T01:32:03;16.44;97.98
19536;HTU21D;9913;51.168;4.124;2023-07-31T01:34:33;16.48;98.73
19536;HTU21D;9913;51.168;4.124;2023-07-31T01:37:03;16.49;98.16
19536;HTU21D;9913;51.168;4.124;2023-07-31T01:39:31;16.45;98.42
19536;HTU21D;9913;51.168;4.124;2023-07-31T01:42:01;16.59;97.81
19536;HTU21D;9913;51.168;4.124;2023-07-31T01:44:29;16.62;97.14
19536;HTU21D;9913;51.168;4.124;2023-07-31T01:46:58;16.35;98.61
19536;HTU21D;9913;51.168;4.124;2023-07-31T01:49:27;16.48;98.55
19536;HTU21D;9913;51.168;4.124;2023-07-31T01:51:55;16.41;99.62
19536;HTU21D;9913;51.168;4.124;2023-07-31T01:54:23;16.36;99.42
19536;HTU21D;9913;51.168;4.124;2023-07-31T01:56:52;16.47;98.45
19536;HTU21D;9913;51.168;4.124;2023-07-31T01:59:21;16.49;98.38
19536;HTU21D;9913;51.168;4.124;2023-07-31T02:01:50;16.56;98.61
19536;HTU21D;9913;51.168;4.124;2023-07-31T02:04:21;16.52;97.90
19536;HTU21D;9913;51.168;4.124;2023-07-31T02:06:49;16.61;98.00
19536;HTU21D;9913;51.168;4.124;2023-07-31T02:09:17;16.59;98.05
19536;HTU21D;9913;51.168;4.124;2023-07-31T02:11:46;16.54;98.68
19536;HTU21D;9913;51.168;4.124;2023-07-31T02:14:14;16.59;98.30
19536;HTU21D;9913;51.168;4.124;2023-07-31T02:16:44;16.58;98.61
19536;HTU21D;9913;51.168;4.124;2023-07-31T02:19:12;16.71;97.73
19536;HTU21D;9913;51.168;4.124;2023-07-31T02:21:41;16.74;98.03
19536;HTU21D;9913;51.168;4.124;2023-07-31T02:24:10;16.75;97.97
19536;HTU21D;9913;51.168;4.124;2023-07-31T02:26:38;16.74;98.11
19536;HTU21D;9913;51.168;4.124;2023-07-31T02:29:07;16.74;97.92
19536;HTU21D;9913;51.168;4.124;2023-07-31T02:31:36;16.71;98.19
19536;HTU21D;9913;51.168;4.124;2023-07-31T02:34:06;16.72;98.32
19536;HTU21D;9913;51.168;4.124;2023-07-31T02:36:34;16.74;98.69
19536;HTU21D;9913;51.168;4.124;2023-07-31T02:39:03;16.73;98.47
19536;HTU21D;9913;51.168;4.124;2023-07-31T02:41:32;16.80;98.07
19536;HTU21D;9913;51.168;4.124;2023-07-31T02:44:01;16.76;98.98
19536;HTU21D;9913;51.168;4.124;2023-07-31T02:46:29;16.84;97.80
19536;HTU21D;9913;51.168;4.124;2023-07-31T02:48:59;16.84;98.87
19536;HTU21D;9913;51.168;4.124;2023-07-31T02:51:28;16.84;98.14
19536;HTU21D;9913;51.168;4.124;2023-07-31T02:53:57;16.78;98.03
19536;HTU21D;9913;51.168;4.124;2023-07-31T02:56:25;16.85;98.26
19536;HTU21D;9913;51.168;4.124;2023-07-31T02:58:53;16.74;98.72
19536;HTU21D;9913;51.168;4.124;2023-07-31T03:01:22;16.86;98.01
19536;HTU21D;9913;51.168;4.124;2023-07-31T03:03:50;16.78;98.80
19536;HTU21D;9913;51.168;4.124;2023-07-31T03:06:19;16.80;98.97
19536;HTU21D;9913;51.168;4.124;2023-07-31T03:08:49;16.92;98.53
19536;HTU21D;9913;51.168;4.124;2023-07-31T03:11:17;16.89;98.68
19536;HTU21D;9913;51.168;4.124;2023-07-31T03:13:45;16.90;98.71
19536;HTU21D;9913;51.168;4.124;2023-07-31T03:16:14;16.91;98.95
19536;HTU21D;9913;51.168;4.124;2023-07-31T03:18:42;16.92;98.87
19536;HTU21D;9913;51.168;4.124;2023-07-31T03:21:10;16.95;99.34
19536;HTU21D;9913;51.168;4.124;2023-07-31T03:23:39;17.00;99.00
19536;HTU21D;9913;51.168;4.124;2023-07-31T03:26:08;16.92;99.55
19536;HTU21D;9913;51.168;4.124;2023-07-31T03:28:37;16.96;99.68
19536;HTU21D;9913;51.168;4.124;2023-07-31T03:31:06;17.02;99.67
19536;HTU21D;9913;51.168;4.124;2023-07-31T03:33:35;17.00;99.50
19536;HTU21D;9913;51.168;4.124;2023-07-31T03:36:04;17.06;99.42
19536;HTU21D;9913;51.168;4.124;2023-07-31T03:38:33;17.08;99.37
19536;HTU21D;9913;51.168;4.124;2023-07-31T03:41:02;17.01;99.84
19536;HTU21D;9913;51.168;4.124;2023-07-31T03:43:34;16.92;100.10
19536;HTU21D;9913;51.168;4.124;2023-07-31T03:46:03;16.76;100.48
19536;HTU21D;9913;51.168;4.124;2023-07-31T03:48:31;16.76;100.65
19536;HTU21D;9913;51.168;4.124;2023-07-31T03:51:00;16.67;100.83
19536;HTU21D;9913;51.168;4.124;2023-07-31T03:53:28;16.65;101.27
19536;HTU21D;9913;51.168;4.124;2023-07-31T03:55:56;16.58;101.51
19536;HTU21D;9913;51.168;4.124;2023-07-31T03:58:25;16.56;101.39
19536;HTU21D;9913;51.168;4.124;2023-07-31T04:00:54;16.51;101.60
19536;HTU21D;9913;51.168;4.124;2023-07-31T04:03:23;16.46;102.06
19536;HTU21D;9913;51.168;4.124;2023-07-31T04:05:53;16.47;102.13
19536;HTU21D;9913;51.168;4.124;2023-07-31T04:08:22;16.41;102.23
19536;HTU21D;9913;51.168;4.124;2023-07-31T04:10:50;16.44;102.47
19536;HTU21D;9913;51.168;4.124;2023-07-31T04:13:18;16.43;102.55
19536;HTU21D;9913;51.168;4.124;2023-07-31T04:15:48;16.44;102.60
19536;HTU21D;9913;51.168;4.124;2023-07-31T04:18:19;16.40;102.61
19536;HTU21D;9913;51.168;4.124;2023-07-31T04:20:47;16.41;103.25
19536;HTU21D;9913;51.168;4.124;2023-07-31T04:23:15;16.36;103.70
19536;HTU21D;9913;51.168;4.124;2023-07-31T04:25:43;16.37;104.02
19536;HTU21D;9913;51.168;4.124;2023-07-31T04:28:12;16.36;103.76
19536;HTU21D;9913;51.168;4.124;2023-07-31T04:30:40;16.41;104.21
19536;HTU21D;9913;51.168;4.124;2023-07-31T04:33:09;16.47;104.20
19536;HTU21D;9913;51.168;4.124;2023-07-31T04:35:38;16.35;104.12
19536;HTU21D;9913;51.168;4.124;2023-07-31T04:38:07;16.40;104.58
19536;HTU21D;9913;51.168;4.124;2023-07-31T04:40:35;16.36;104.47
19536;HTU21D;9913;51.168;4.124;2023-07-31T04:43:04;16.40;104.67
19536;HTU21D;9913;51.168;4.124;2023-07-31T04:45:32;16.37;104.54
19536;HTU21D;9913;51.168;4.124;2023-07-31T04:48:00;16.41;104.56
19536;HTU21D;9913;51.168;4.124;2023-07-31T04:50:29;16.35;104.15
19536;HTU21D;9913;51.168;4.124;2023-07-31T04:52:59;16.31;104.21
19536;HTU21D;9913;51.168;4.124;2023-07-31T04:55:27;16.32;104.27
19536;HTU21D;9913;51.168;4.124;2023-07-31T04:57:55;16.28;104.05
19536;HTU21D;9913;51.168;4.124;2023-07-31T05:00:24;16.32;104.47
19536;HTU21D;9913;51.168;4.124;2023-07-31T05:02:52;16.27;104.60
19536;HTU21D;9913;51.168;4.124;2023-07-31T05:05:21;16.26;104.76
19536;HTU21D;9913;51.168;4.124;2023-07-31T05:07:49;16.22;104.73
19536;HTU21D;9913;51.168;4.124;2023-07-31T05:10:19;16.29;104.78
19536;HTU21D;9913;51.168;4.124;2023-07-31T05:12:47;16.27;104.78
19536;HTU21D;9913;51.168;4.124;2023-07-31T05:15:16;16.30;104.81
19536;HTU21D;9913;51.168;4.124;2023-07-31T05:17:44;16.32;105.07
19536;HTU21D;9913;51.168;4.124;2023-07-31T05:20:12;16.32;104.98
19536;HTU21D;9913;51.168;4.124;2023-07-31T05:22:41;16.30;104.73
19536;HTU21D;9913;51.168;4.124;2023-07-31T05:25:10;16.33;104.95
19536;HTU21D;9913;51.168;4.124;2023-07-31T05:27:40;16.31;105.08
19536;HTU21D;9913;51.168;4.124;2023-07-31T05:30:08;16.36;105.37
19536;HTU21D;9913;51.168;4.124;2023-07-31T05:32:37;16.41;105.14
19536;HTU21D;9913;51.168;4.124;2023-07-31T05:35:06;16.36;105.15
19536;HTU21D;9913;51.168;4.124;2023-07-31T05:37:34;16.39;105.18
19536;HTU21D;9913;51.168;4.124;2023-07-31T05:40:03;16.46;105.07
19536;HTU21D;9913;51.168;4.124;2023-07-31T05:42:32;16.44;104.71
19536;HTU21D;9913;51.168;4.124;2023-07-31T05:45:01;16.45;104.66
19536;HTU21D;9913;51.168;4.124;2023-07-31T05:47:30;16.52;104.51
19536;HTU21D;9913;51.168;4.124;2023-07-31T05:49:58;16.50;104.15
19536;HTU21D;9913;51.168;4.124;2023-07-31T05:52:27;16.50;103.92
19536;HTU21D;9913;51.168;4.124;2023-07-31T05:54:56;16.51;103.81
19536;HTU21D;9913;51.168;4.124;2023-07-31T05:57:24;16.56;103.81
19536;HTU21D;9913;51.168;4.124;2023-07-31T05:59:53;16.58;103.54
19536;HTU21D;9913;51.168;4.124;2023-07-31T06:02:22;16.62;103.42
19536;HTU21D;9913;51.168;4.124;2023-07-31T06:04:51;16.64;103.50
19536;HTU21D;9913;51.168;4.124;2023-07-31T06:07:19;16.63;103.41
19536;HTU21D;9913;51.168;4.124;2023-07-31T06:09:48;16.65;103.47
19536;HTU21D;9913;51.168;4.124;2023-07-31T06:12:16;16.66;103.81
19536;HTU21D;9913;51.168;4.124;2023-07-31T06:14:45;16.67;103.65
19536;HTU21D;9913;51.168;4.124;2023-07-31T06:17:14;16.72;103.69
19536;HTU21D;9913;51.168;4.124;2023-07-31T06:19:44;16.67;103.12
19536;HTU21D;9913;51.168;4.124;2023-07-31T06:22:12;16.76;103.28
19536;HTU21D;9913;51.168;4.124;2023-07-31T06:24:40;16.71;103.08
19536;HTU21D;9913;51.168;4.124;2023-07-31T06:27:09;16.63;103.34
19536;HTU21D;9913;51.168;4.124;2023-07-31T06:29:37;16.70;103.78
19536;HTU21D;9913;51.168;4.124;2023-07-31T06:32:06;16.74;103.54
19536;HTU21D;9913;51.168;4.124;2023-07-31T06:34:35;16.84;103.57
19536;HTU21D;9913;51.168;4.124;2023-07-31T06:37:05;16.82;102.88
19536;HTU21D;9913;51.168;4.124;2023-07-31T06:39:33;16.90;102.63
19536;HTU21D;9913;51.168;4.124;2023-07-31T06:42:02;16.88;102.28
19536;HTU21D;9913;51.168;4.124;2023-07-31T06:44:31;16.79;102.44
19536;HTU21D;9913;51.168;4.124;2023-07-31T06:46:59;16.81;102.44
19536;HTU21D;9913;51.168;4.124;2023-07-31T06:49:27;16.87;102.63
19536;HTU21D;9913;51.168;4.124;2023-07-31T06:51:56;16.84;102.80
19536;HTU21D;9913;51.168;4.124;2023-07-31T06:54:25;16.79;102.56
19536;HTU21D;9913;51.168;4.124;2023-07-31T06:56:54;16.90;102.51
19536;HTU21D;9913;51.168;4.124;2023-07-31T06:59:22;16.93;102.63
19536;HTU21D;9913;51.168;4.124;2023-07-31T07:01:53;16.87;102.55
19536;HTU21D;9913;51.168;4.124;2023-07-31T07:04:22;16.82;102.73
19536;HTU21D;9913;51.168;4.124;2023-07-31T07:06:50;16.84;102.96
19536;HTU21D;9913;51.168;4.124;2023-07-31T07:09:18;16.80;102.41
19536;HTU21D;9913;51.168;4.124;2023-07-31T07:11:48;16.88;102.44
19536;HTU21D;9913;51.168;4.124;2023-07-31T07:14:16;16.92;102.57
19536;HTU21D;9913;51.168;4.124;2023-07-31T07:16:45;17.04;102.60
19536;HTU21D;9913;51.168;4.124;2023-07-31T07:19:13;17.03;101.90
19536;HTU21D;9913;51.168;4.124;2023-07-31T07:21:41;17.04;102.06
19536;HTU21D;9913;51.168;4.124;2023-07-31T07:24:10;16.98;101.84
19536;HTU21D;9913;51.168;4.124;2023-07-31T07:26:41;16.89;101.57
19536;HTU21D;9913;51.168;4.124;2023-07-31T07:29:10;16.84;101.60
19536;HTU21D;9913;51.168;4.124;2023-07-31T07:31:39;16.91;101.86
19536;HTU21D;9913;51.168;4.124;2023-07-31T07:34:07;17.02;101.36
19536;HTU21D;9913;51.168;4.124;2023-07-31T07:36:35;17.04;100.84
19536;HTU21D;9913;51.168;4.124;2023-07-31T07:39:05;17.08;101.25
19536;HTU21D;9913;51.168;4.124;2023-07-31T07:41:33;17.13;101.24
19536;HTU21D;9913;51.168;4.124;2023-07-31T07:44:01;17.23;101.14
19536;HTU21D;9913;51.168;4.124;2023-07-31T07:46:44;17.52;100.73
19536;HTU21D;9913;51.168;4.124;2023-07-31T07:49:38;17.69;100.38
19536;HTU21D;9913;51.168;4.124;2023-07-31T07:52:07;17.98;100.50
19536;HTU21D;9913;51.168;4.124;2023-07-31T07:54:40;18.24;100.83
19536;HTU21D;9913;51.168;4.124;2023-07-31T07:57:10;18.09;100.73
19536;HTU21D;9913;51.168;4.124;2023-07-31T07:59:39;18.00;100.79
19536;HTU21D;9913;51.168;4.124;2023-07-31T08:02:08;17.92;100.90
19536;HTU21D;9913;51.168;4.124;2023-07-31T08:04:37;17.98;100.78
19536;HTU21D;9913;51.168;4.124;2023-07-31T08:07:05;18.00;101.05
19536;HTU21D;9913;51.168;4.124;2023-07-31T08:09:33;17.96;101.45
19536;HTU21D;9913;51.168;4.124;2023-07-31T08:12:02;17.93;100.78
19536;HTU21D;9913;51.168;4.124;2023-07-31T08:14:30;17.80;101.63
19536;HTU21D;9913;51.168;4.124;2023-07-31T08:17:00;17.89;100.99
19536;HTU21D;9913;51.168;4.124;2023-07-31T08:19:31;17.83;100.88
19536;HTU21D;9913;51.168;4.124;2023-07-31T08:21:59;17.88;101.37
19536;HTU21D;9913;51.168;4.124;2023-07-31T08:24:28;17.80;101.06
19536;HTU21D;9913;51.168;4.124;2023-07-31T08:26:56;17.87;100.86
19536;HTU21D;9913;51.168;4.124;2023-07-31T08:29:25;17.84;100.87
19536;HTU21D;9913;51.168;4.124;2023-07-31T08:31:53;17.77;101.09
19536;HTU21D;9913;51.168;4.124;2023-07-31T08:34:21;17.94;101.09
19536;HTU21D;9913;51.168;4.124;2023-07-31T08:36:51;18.15;100.84
19536;HTU21D;9913;51.168;4.124;2023-07-31T08:39:19;18.07;100.40
19536;HTU21D;9913;51.168;4.124;2023-07-31T08:41:48;18.13;100.87
19536;HTU21D;9913;51.168;4.124;2023-07-31T08:44:17;18.08;100.54
19536;HTU21D;9913;51.168;4.124;2023-07-31T08:46:46;18.21;100.51
19536;HTU21D;9913;51.168;4.124;2023-07-31T08:49:17;18.32;100.28
19536;HTU21D;9913;51.168;4.124;2023-07-31T08:51:46;18.49;100.41
19536;HTU21D;9913;51.168;4.124;2023-07-31T08:54:20;18.87;100.08
19536;HTU21D;9913;51.168;4.124;2023-07-31T08:56:49;19.09;100.03
19536;HTU21D;9913;51.168;4.124;2023-07-31T08:59:18;18.92;99.77
19536;HTU21D;9913;51.168;4.124;2023-07-31T09:01:50;19.01;99.87
19536;HTU21D;9913;51.168;4.124;2023-07-31T09:04:21;19.00;99.90
19536;HTU21D;9913;51.168;4.124;2023-07-31T09:06:54;19.31;100.12
19536;HTU21D;9913;51.168;4.124;2023-07-31T09:09:26;19.62;100.42
19536;HTU21D;9913;51.168;4.124;2023-07-31T09:11:55;19.71;98.87
19536;HTU21D;9913;51.168;4.124;2023-07-31T09:14:25;19.76;99.67
19536;HTU21D;9913;51.168;4.124;2023-07-31T09:16:55;19.82;99.72
19536;HTU21D;9913;51.168;4.124;2023-07-31T09:19:26;20.10;99.22
19536;HTU21D;9913;51.168;4.124;2023-07-31T09:21:55;19.91;98.03
19536;HTU21D;9913;51.168;4.124;2023-07-31T09:24:29;19.75;99.36
19536;HTU21D;9913;51.168;4.124;2023-07-31T09:26:59;19.87;98.79
19536;HTU21D;9913;51.168;4.124;2023-07-31T09:29:28;20.01;98.29
19536;HTU21D;9913;51.168;4.124;2023-07-31T09:31:57;19.90;99.10
19536;HTU21D;9913;51.168;4.124;2023-07-31T09:34:30;19.91;98.72
19536;HTU21D;9913;51.168;4.124;2023-07-31T09:37:04;20.02;99.37
19536;HTU21D;9913;51.168;4.124;2023-07-31T09:39:45;19.87;98.84
19536;HTU21D;9913;51.168;4.124;2023-07-31T09:42:14;19.76;99.33
19536;HTU21D;9913;51.168;4.124;2023-07-31T09:44:42;19.68;99.42
19536;HTU21D;9913;51.168;4.124;2023-07-31T09:47:21;19.81;99.58
19536;HTU21D;9913;51.168;4.124;2023-07-31T09:49:52;19.90;99.20
19536;HTU21D;9913;51.168;4.124;2023-07-31T09:52:21;20.05;99.50
19536;HTU21D;9913;51.168;4.124;2023-07-31T09:54:50;19.86;100.04
19536;HTU21D;9913;51.168;4.124;2023-07-31T09:57:21;19.97;99.07
19536;HTU21D;9913;51.168;4.124;2023-07-31T09:59:52;19.72;99.56
19536;HTU21D;9913;51.168;4.124;2023-07-31T10:02:22;19.58;100.62
19536;HTU21D;9913;51.168;4.124;2023-07-31T10:04:50;19.75;100.14
19536;HTU21D;9913;51.168;4.124;2023-07-31T10:07:20;20.00;99.68
19536;HTU21D;9913;51.168;4.124;2023-07-31T10:09:53;20.31;99.38
19536;HTU21D;9913;51.168;4.124;2023-07-31T10:12:24;19.84;99.54
19536;HTU21D;9913;51.168;4.124;2023-07-31T10:14:55;19.61;100.19
19536;HTU21D;9913;51.168;4.124;2023-07-31T10:17:25;19.30;100.85
19536;HTU21D;9913;51.168;4.124;2023-07-31T10:19:53;19.28;100.58
19536;HTU21D;9913;51.168;4.124;2023-07-31T10:22:22;19.12;101.22
19536;HTU21D;9913;51.168;4.124;2023-07-31T10:24:54;19.35;100.89
19536;HTU21D;9913;51.168;4.124;2023-07-31T10:27:23;19.56;100.82
19536;HTU21D;9913;51.168;4.124;2023-07-31T10:29:52;19.84;100.27
19536;HTU21D;9913;51.168;4.124;2023-07-31T10:32:22;19.57;100.14
19536;HTU21D;9913;51.168;4.124;2023-07-31T10:34:52;19.37;100.35
19536;HTU21D;9913;51.168;4.124;2023-07-31T10:37:25;19.42;100.38
19536;HTU21D;9913;51.168;4.124;2023-07-31T10:40:00;19.38;100.36
19536;HTU21D;9913;51.168;4.124;2023-07-31T10:42:31;19.24;100.68
19536;HTU21D;9913;51.168;4.124;2023-07-31T10:45:00;19.00;101.48
19536;HTU21D;9913;51.168;4.124;2023-07-31T10:47:29;19.13;101.67
19536;HTU21D;9913;51.168;4.124;2023-07-31T10:50:16;19.38;101.60
19536;HTU21D;9913;51.168;4.124;2023-07-31T10:52:51;19.29;101.87
19536;HTU21D;9913;51.168;4.124;2023-07-31T10:55:26;19.35;101.86
19536;HTU21D;9913;51.168;4.124;2023-07-31T10:57:56;18.97;102.00
19536;HTU21D;9913;51.168;4.124;2023-07-31T11:00:27;18.78;102.15
19536;HTU21D;9913;51.168;4.124;2023-07-31T11:03:00;18.67;102.40
19536;HTU21D;9913;51.168;4.124;2023-07-31T11:05:46;18.54;102.66
19536;HTU21D;9913;51.168;4.124;2023-07-31T11:08:16;18.65;102.51
19536;HTU21D;9913;51.168;4.124;2023-07-31T11:10:48;18.61;102.04
19536;HTU21D;9913;51.168;4.124;2023-07-31T11:13:17;18.69;102.34
19536;HTU21D;9913;51.168;4.124;2023-07-31T11:15:45;19.11;102.06
19536;HTU21D;9913;51.168;4.124;2023-07-31T11:18:13;19.14;101.81
19536;HTU21D;9913;51.168;4.124;2023-07-31T11:20:44;18.96;101.43
19536;HTU21D;9913;51.168;4.124;2023-07-31T11:23:12;19.00;101.77
19536;HTU21D;9913;51.168;4.124;2023-07-31T11:25:41;18.91;101.96
19536;HTU21D;9913;51.168;4.124;2023-07-31T11:28:13;18.87;101.53
19536;HTU21D;9913;51.168;4.124;2023-07-31T11:30:42;18.96;101.56
19536;HTU21D;9913;51.168;4.124;2023-07-31T11:33:12;19.13;101.39
19536;HTU21D;9913;51.168;4.124;2023-07-31T11:35:43;19.00;101.28
19536;HTU21D;9913;51.168;4.124;2023-07-31T11:38:14;19.06;101.54
19536;HTU21D;9913;51.168;4.124;2023-07-31T11:40:49;19.13;101.60
19536;HTU21D;9913;51.168;4.124;2023-07-31T11:43:20;19.14;101.38
19536;HTU21D;9913;51.168;4.124;2023-07-31T11:45:50;19.23;101.31
19536;HTU21D;9913;51.168;4.124;2023-07-31T11:48:20;19.23;100.99
19536;HTU21D;9913;51.168;4.124;2023-07-31T11:50:50;19.30;101.08
19536;HTU21D;9913;51.168;4.124;2023-07-31T11:53:22;19.36;100.94
19536;HTU21D;9913;51.168;4.124;2023-07-31T11:55:52;19.33;101.34
19536;HTU21D;9913;51.168;4.124;2023-07-31T11:58:23;19.37;101.39
19536;HTU21D;9913;51.168;4.124;2023-07-31T12:00:52;19.23;101.51
19536;HTU21D;9913;51.168;4.124;2023-07-31T12:03:21;19.37;101.57
19536;HTU21D;9913;51.168;4.124;2023-07-31T12:05:49;19.24;101.41
19536;HTU21D;9913;51.168;4.124;2023-07-31T12:08:20;19.31;101.35
19536;HTU21D;9913;51.168;4.124;2023-07-31T12:10:50;19.55;101.29
19536;HTU21D;9913;51.168;4.124;2023-07-31T12:13:24;19.55;101.36
19536;HTU21D;9913;51.168;4.124;2023-07-31T12:15:54;19.62;101.30
19536;HTU21D;9913;51.168;4.124;2023-07-31T12:18:26;19.62;101.20
19536;HTU21D;9913;51.168;4.124;2023-07-31T12:20:55;19.42;100.71
19536;HTU21D;9913;51.168;4.124;2023-07-31T12:23:25;19.39;100.93
19536;HTU21D;9913;51.168;4.124;2023-07-31T12:26:03;19.43;101.00
19536;HTU21D;9913;51.168;4.124;2023-07-31T12:28:36;19.56;101.06
19536;HTU21D;9913;51.168;4.124;2023-07-31T12:31:06;19.45;101.11
19536;HTU21D;9913;51.168;4.124;2023-07-31T12:33:36;19.41;100.86
19536;HTU21D;9913;51.168;4.124;2023-07-31T12:36:09;19.48;100.96
19536;HTU21D;9913;51.168;4.124;2023-07-31T12:38:38;19.38;100.89
19536;HTU21D;9913;51.168;4.124;2023-07-31T12:41:06;19.48;101.57
19536;HTU21D;9913;51.168;4.124;2023-07-31T12:43:38;19.35;101.75
19536;HTU21D;9913;51.168;4.124;2023-07-31T12:46:07;19.32;101.86
19536;HTU21D;9913;51.168;4.124;2023-07-31T12:48:36;19.27;102.34
19536;HTU21D;9913;51.168;4.124;2023-07-31T12:51:05;19.30;102.13
19536;HTU21D;9913;51.168;4.124;2023-07-31T12:53:35;19.32;102.28
19536;HTU21D;9913;51.168;4.124;2023-07-31T12:56:03;19.29;102.54
19536;HTU21D;9913;51.168;4.124;2023-07-31T12:58:32;19.16;102.33
19536;HTU21D;9913;51.168;4.124;2023-07-31T13:01:01;19.28;103.11
19536;HTU21D;9913;51.168;4.124;2023-07-31T13:03:30;19.15;103.39
19536;HTU21D;9913;51.168;4.124;2023-07-31T13:05:58;18.96;103.38
19536;HTU21D;9913;51.168;4.124;2023-07-31T13:08:27;18.83;103.77
19536;HTU21D;9913;51.168;4.124;2023-07-31T13:10:55;18.80;104.13
19536;HTU21D;9913;51.168;4.124;2023-07-31T13:13:23;18.63;104.57
19536;HTU21D;9913;51.168;4.124;2023-07-31T13:15:52;18.51;104.67
19536;HTU21D;9913;51.168;4.124;2023-07-31T13:18:21;18.56;105.21
19536;HTU21D;9913;51.168;4.124;2023-07-31T13:20:50;18.61;105.24
19536;HTU21D;9913;51.168;4.124;2023-07-31T13:23:18;18.52;104.92
19536;HTU21D;9913;51.168;4.124;2023-07-31T13:25:46;18.62;104.97
19536;HTU21D;9913;51.168;4.124;2023-07-31T13:28:15;18.56;104.95
19536;HTU21D;9913;51.168;4.124;2023-07-31T13:30:43;18.50;105.47
19536;HTU21D;9913;51.168;4.124;2023-07-31T13:33:13;18.37;105.11
19536;HTU21D;9913;51.168;4.124;2023-07-31T13:36:02;18.25;105.64
19536;HTU21D;9913;51.168;4.124;2023-07-31T13:38:30;18.18;105.72
19536;HTU21D;9913;51.168;4.124;2023-07-31T13:40:58;18.17;105.43
19536;HTU21D;9913;51.168;4.124;2023-07-31T13:43:26;18.11;105.81
19536;HTU21D;9913;51.168;4.124;2023-07-31T13:45:55;18.11;105.83
19536;HTU21D;9913;51.168;4.124;2023-07-31T13:48:23;18.13;105.71
19536;HTU21D;9913;51.168;4.124;2023-07-31T13:50:54;18.05;105.89
19536;HTU21D;9913;51.168;4.124;2023-07-31T13:53:24;17.98;105.94
19536;HTU21D;9913;51.168;4.124;2023-07-31T13:55:52;17.96;106.17
19536;HTU21D;9913;51.168;4.124;2023-07-31T13:58:21;17.92;106.36
19536;HTU21D;9913;51.168;4.124;2023-07-31T14:00:49;17.97;106.73
19536;HTU21D;9913;51.168;4.124;2023-07-31T14:03:17;17.89;106.62
19536;HTU21D;9913;51.168;4.124;2023-07-31T14:05:46;17.94;106.90
19536;HTU21D;9913;51.168;4.124;2023-07-31T14:08:14;17.91;106.97
19536;HTU21D;9913;51.168;4.124;2023-07-31T14:10:44;17.92;106.82
19536;HTU21D;9913;51.168;4.124;2023-07-31T14:13:12;17.91;106.75
19536;HTU21D;9913;51.168;4.124;2023-07-31T14:15:41;17.88;106.93
19536;HTU21D;9913;51.168;4.124;2023-07-31T14:18:10;17.89;107.23
19536;HTU21D;9913;51.168;4.124;2023-07-31T14:20:39;17.84;107.33
19536;HTU21D;9913;51.168;4.124;2023-07-31T14:23:07;17.82;107.37
19536;HTU21D;9913;51.168;4.124;2023-07-31T14:25:35;17.89;107.46
19536;HTU21D;9913;51.168;4.124;2023-07-31T14:28:05;17.90;107.40
19536;HTU21D;9913;51.168;4.124;2023-07-31T14:30:34;17.85;107.43
19536;HTU21D;9913;51.168;4.124;2023-07-31T14:33:02;18.02;107.77
19536;HTU21D;9913;51.168;4.124;2023-07-31T14:35:31;17.82;107.22
19536;HTU21D;9913;51.168;4.124;2023-07-31T14:37:59;17.81;107.83
19536;HTU21D;9913;51.168;4.124;2023-07-31T14:40:27;17.83;108.05
19536;HTU21D;9913;51.168;4.124;2023-07-31T14:42:56;17.75;107.75
19536;HTU21D;9913;51.168;4.124;2023-07-31T14:45:25;17.80;108.19
19536;HTU21D;9913;51.168;4.124;2023-07-31T14:47:54;17.75;107.89
19536;HTU21D;9913;51.168;4.124;2023-07-31T14:50:22;17.88;107.95
19536;HTU21D;9913;51.168;4.124;2023-07-31T14:52:51;17.80;107.89
19536;HTU21D;9913;51.168;4.124;2023-07-31T14:55:19;17.83;107.66
19536;HTU21D;9913;51.168;4.124;2023-07-31T14:57:48;17.83;108.01
19536;HTU21D;9913;51.168;4.124;2023-07-31T15:00:16;17.77;107.70
19536;HTU21D;9913;51.168;4.124;2023-07-31T15:02:46;17.78;108.17
19536;HTU21D;9913;51.168;4.124;2023-07-31T15:05:15;17.77;108.46
19536;HTU21D;9913;51.168;4.124;2023-07-31T15:07:43;17.78;108.01
19536;HTU21D;9913;51.168;4.124;2023-07-31T15:10:11;17.88;108.14
19536;HTU21D;9913;51.168;4.124;2023-07-31T15:12:41;17.83;107.85
19536;HTU21D;9913;51.168;4.124;2023-07-31T15:15:10;17.88;108.25
19536;HTU21D;9913;51.168;4.124;2023-07-31T15:17:38;17.83;108.07
19536;HTU21D;9913;51.168;4.124;2023-07-31T15:20:09;17.85;108.40
19536;HTU21D;9913;51.168;4.124;2023-07-31T15:22:39;17.83;108.10
19536;HTU21D;9913;51.168;4.124;2023-07-31T15:25:09;17.80;108.23
19536;HTU21D;9913;51.168;4.124;2023-07-31T15:27:42;17.82;108.43
19536;HTU21D;9913;51.168;4.124;2023-07-31T15:30:13;17.83;108.27
19536;HTU21D;9913;51.168;4.124;2023-07-31T15:32:46;17.77;107.62
19536;HTU21D;9913;51.168;4.124;2023-07-31T15:35:19;17.76;107.95